Ocean Springs, MS (39565)

1:56 AM CDT on April 27, 2015 (GMT -0500)
Country | | Change Station
CLOSE
Current Station
Personal Weather Station
Location: Vancleave, MS
Elevation: 50 ft
Nearby Weather Stations

Elev 50 ft 30.52 °N, 88.87 °W | Updated 3 seconds ago

Mostly Cloudy
Mostly Cloudy
70.1 °F
Feels Like 70.1 °F
N
0.0
Wind Variable Wind from SW
Gusts 0.0 mph

Today
High -- | Low -- °F
--% Chance of Precip.
Yesterday
High -- | Low -- °F
Precip. -- in
6:15 AM 7:30 PM
Waxing Gibbous, 62% visible
Pressure 29.72 in
Visibility 0.2 miles
Clouds
Dew Point 69 °F
Humidity 96%
Rainfall 0.00 in
Snow Depth Not available.
UV Not available.
Pollen 7.30 out of 12
Air Quality Not available.
Flu Activity No Activity
METAR KPQL 270653Z AUTO 35004KT 1/4SM FG VV001 21/21 A2972 RMK AO2 SLP064 T02110211 TSNO

More Conditions Fewer Conditions

Pressure 29.72 in
Visibility 0.2 miles
Clouds
Dew Point 69 °F
Humidity 96%
Rainfall 0.00 in
Snow Depth Not available.
UV Not available.
Pollen 7.30 out of 12
Air Quality Not available.
Flu Activity No Activity
METAR KPQL 270653Z AUTO 35004KT 1/4SM FG VV001 21/21 A2972 RMK AO2 SLP064 T02110211 TSNO

More Conditions Fewer Conditions

10-Day Weather Forecast

Almanac

Astronomy

Apr. 27, 2015 Rise Set
Actual Time
Civil Twilight
Nautical Twilight
Astronomical Twilight
Moon
Length of Visible Light
Length of Day
Tomorrow will be .
, % of the Moon is Illuminated

Today's Extremes

State Highs State Lows

Community

WunderPhotos

Upload Photos

1,817,267 photos uploaded!

WunderBlogs® & News

Nearby

Air Quality

  Air Quality AQ Index Pollutant
Not available.

Snow Depth

Station Depth Elevation

Earthquake Activity

City Distance Mag. Time & Date
Minimum magnitude displayed is 2.5.

Coastal Water Temperatures

Place Temperature

Stations

Nearby Weather Stations

Station Location Temp. Windchill Dew Point Humidity Wind Precip. Elev Updated Type